Genius Star Xii — 3FDB3 — position and weather

sailwx.info

Track history (hours):
 
Tides and Currents Weather Stations Pressure Air Temp Water Temp Dewpoint Dewpoint Depression Visibility Wind Speed Wind Dir Waves Ship Positions

Genius Star Xii

Last reported at 2017-Dec-02 12:32 UTC. Time now 2018-Jan-18 02:27 UTC.
Position S 28°05' E 033°02'.
Warning: this ship's position is 46 days out of date.

Length 125 m; draft 8.1 m.

Type: Cargo ship. MMSI: 351550000.

Date/timePositionNaut miles runAvg speedWind from/ knotsBaromVisibWave heightAir tempDewpointWater temp
2017-Dec-02 12:32S 28°05' E 033°02'1 8.2
2017-Dec-02 12:26S 28°06' E 033°01'56 7.3
2017-Dec-02 04:48S 28°52' E 032°25'2 7.7
2017-Dec-02 04:31S 28°54' E 032°23'8 7.7
2017-Dec-02 03:29S 29°00' E 032°18'4 8.0
2017-Dec-02 03:00S 29°03' E 032°16'28 8.2
2017-Dec-01 23:37S 29°26' E 031°58'2 8.3
2017-Dec-01 23:25S 29°27' E 031°57'3 8.4
2017-Dec-01 23:01S 29°30' E 031°54'4 8.2
2017-Dec-01 22:31S 29°33' E 031°51'4 8.8
2017-Dec-01 22:01S 29°37' E 031°48'4 8.9
2017-Dec-01 21:30S 29°41' E 031°45'5 8.4
2017-Dec-01 20:58S 29°44' E 031°42'4 7.8
2017-Dec-01 20:31S 29°47' E 031°40'4 7.8
2017-Dec-01 20:01S 29°50' E 031°37'4 7.8
2017-Dec-01 19:31S 29°53' E 031°35'4 8.6
2017-Dec-01 19:00S 29°57' E 031°32'4 8.7
2017-Dec-01 18:31S 30°00' E 031°28'4 8.6
2017-Dec-01 18:01S 30°03' E 031°25'4 8.4
2017-Dec-01 17:30S 30°06' E 031°22'5 9.0
2017-Dec-01 17:00S 30°10' E 031°18'5 9.9
2017-Dec-01 16:31S 30°13' E 031°14'510.0
2017-Dec-01 16:01S 30°17' E 031°10'510.6
2017-Dec-01 15:31S 30°20' E 031°06'611.2
2017-Dec-01 15:00S 30°24' E 031°01'611.7
2017-Dec-01 14:29S 30°29' E 030°56'511.4
2017-Dec-01 14:00S 30°33' E 030°52'611.1
2017-Dec-01 13:29S 30°37' E 030°48'511.2
2017-Dec-01 13:01S 30°42' E 030°44'  
Track history (hours):
 
Tides and Currents Weather Stations Pressure Air Temp Water Temp Dewpoint Dewpoint Depression Visibility Wind Speed Wind Dir Waves Ship Positions

Genius Star Xii

Last reported at 2017-Dec-02 12:32 UTC. Time now 2018-Jan-18 02:27 UTC.
Position S 28°05' E 033°02'.
Warning: this ship's position is 46 days out of date.

Length 125 m; draft 8.1 m.

Type: Cargo ship. MMSI: 351550000.

Date/timePositionNaut miles runAvg speedWind from/ knotsBaromVisibWave heightAir tempDewpointWater temp
2017-Dec-02 12:32S 28°05' E 033°02'1 8.2
2017-Dec-02 12:26S 28°06' E 033°01'56 7.3
2017-Dec-02 04:48S 28°52' E 032°25'2 7.7
2017-Dec-02 04:31S 28°54' E 032°23'8 7.7
2017-Dec-02 03:29S 29°00' E 032°18'4 8.0
2017-Dec-02 03:00S 29°03' E 032°16'28 8.2
2017-Dec-01 23:37S 29°26' E 031°58'2 8.3
2017-Dec-01 23:25S 29°27' E 031°57'3 8.4
2017-Dec-01 23:01S 29°30' E 031°54'4 8.2
2017-Dec-01 22:31S 29°33' E 031°51'4 8.8
2017-Dec-01 22:01S 29°37' E 031°48'4 8.9
2017-Dec-01 21:30S 29°41' E 031°45'5 8.4
2017-Dec-01 20:58S 29°44' E 031°42'4 7.8
2017-Dec-01 20:31S 29°47' E 031°40'4 7.8
2017-Dec-01 20:01S 29°50' E 031°37'4 7.8
2017-Dec-01 19:31S 29°53' E 031°35'4 8.6
2017-Dec-01 19:00S 29°57' E 031°32'4 8.7
2017-Dec-01 18:31S 30°00' E 031°28'4 8.6
2017-Dec-01 18:01S 30°03' E 031°25'4 8.4
2017-Dec-01 17:30S 30°06' E 031°22'5 9.0
2017-Dec-01 17:00S 30°10' E 031°18'5 9.9
2017-Dec-01 16:31S 30°13' E 031°14'510.0
2017-Dec-01 16:01S 30°17' E 031°10'510.6
2017-Dec-01 15:31S 30°20' E 031°06'611.2
2017-Dec-01 15:00S 30°24' E 031°01'611.7
2017-Dec-01 14:29S 30°29' E 030°56'511.4
2017-Dec-01 14:00S 30°33' E 030°52'611.1
2017-Dec-01 13:29S 30°37' E 030°48'511.2
2017-Dec-01 13:01S 30°42' E 030°44'  

Dump ship's entire track history